KDOV/DOV METAR and TAF weather

Enter ICAO airport designator
Station Type Date Time Source
KDOV METAR 2018/06/25 01:56 UTC NOAA

KDOV 250156Z AUTO 24008KT 10SM FEW160 23/20 A2987 RMK AO2 RAE04DZB04E06RAB06E18 TSB10E25 SLP118 P0000 T02330204 $


Station Type Date Time Source
KDOV Decoded METAR 2018/06/25 01:56 UTC NOAA

Dover Air Force Base, DE, United States (KDOV) 39-08N 075-28W
Jun 24, 2018 - 09:56 PM EDT / 2018.06.25 0156 UTC
Wind: from the WSW (240 degrees) at 9 MPH (8 KT):0
Visibility: 10 mile(s):0
Sky conditions: mostly clear
Precipitation last hour: A trace
Temperature: 73.9 F (23.3 C)
Dew Point: 68.7 F (20.4 C)
Relative Humidity: 83%
Pressure (altimeter): 29.87 in. Hg (1011 hPa)
ob: KDOV 250156Z AUTO 24008KT 10SM FEW160 23/20 A2987 RMK AO2 RAE04DZB04E06RAB06E18 TSB10E25 SLP118 P0000 T02330204
cycle: 2

Station Type Date Time Source
KDOV TAF 2018/06/25 00:10 UTC NOAA

TAF KDOV 250000Z 2500/2606 VRB06KT 8000 -SHRA SCT020 BKN040 QNH2981INS
TEMPO 2500/2502 27025G35KT 4800 -TSRA SCT020 BKN030CB
BECMG 2504/2505 33009KT 9999 NSW FEW020 QNH2986INS
BECMG 2512/2513 35010G18KT 9999 SKC QNH2996INS
BECMG 2516/2517 35009KT 9999 SKC QNH3001INS TX29/2500Z TN20/2508Z


Example: see airport list